Time;durP1;ratioP1;P1;durP2;ratioP2;P2;SDS_P1;SDS_P2;PMS_P1;PMS_P2;Temp;Humidity;BMP_temperature;BMP_pressure;BME280_temperature;BME280_humidity;BME280_pressure;Samples;Min_cycle;Max_cycle;Signal;HPM_P1;HPM_P2
2022/12/17 13:07:40;;;;;;;23.33;15.20;;;1.30;67.50;;;;;;5105509;28;20223;-68
2022/12/17 13:10:27;;;;;;;22.40;13.73;;;1.20;67.60;;;;;;5096450;28;20232;-68
2022/12/17 13:12:54;;;;;;;29.70;16.98;;;1.20;68.00;;;;;;5096852;28;20250;-68
2022/12/17 13:15:31;;;;;;;25.00;15.30;;;1.20;68.70;;;;;;5098020;28;20594;-68
2022/12/17 13:18:15;;;;;;;27.58;16.45;;;1.20;69.00;;;;;;5095065;28;20196;-68
2022/12/17 13:20:43;;;;;;;25.10;15.30;;;1.20;69.40;;;;;;5102108;28;20200;-68
2022/12/17 13:23:24;;;;;;;24.52;15.05;;;1.20;69.60;;;;;;5097429;28;20262;-68
2022/12/17 13:26:18;;;;;;;25.55;15.85;;;1.40;70.10;;;;;;5095064;28;20282;-68
2022/12/17 13:28:50;;;;;;;25.65;15.85;;;1.50;69.70;;;;;;5094595;28;20239;-69
2022/12/17 13:31:21;;;;;;;26.05;15.52;;;1.50;70.00;;;;;;5100338;28;20607;-69
2022/12/17 13:33:56;;;;;;;26.45;16.33;;;1.60;69.00;;;;;;5098878;28;20207;-68
2022/12/17 13:36:30;;;;;;;26.15;16.55;;;1.60;70.00;;;;;;5097670;28;20192;-68
2022/12/17 13:39:04;;;;;;;25.08;16.27;;;1.60;70.30;;;;;;5100065;28;20211;-68
2022/12/17 13:41:33;;;;;;;24.65;16.50;;;1.60;70.40;;;;;;5100937;28;20265;-69
2022/12/17 13:44:04;;;;;;;28.48;18.58;;;1.60;69.70;;;;;;5097107;28;20223;-70
2022/12/17 13:46:50;;;;;;;30.48;18.42;;;1.60;69.90;;;;;;5099763;28;20250;-68
2022/12/17 13:49:20;;;;;;;27.40;15.40;;;1.60;69.40;;;;;;5098151;28;20193;-68
2022/12/17 13:51:59;;;;;;;27.98;16.70;;;1.70;70.10;;;;;;5100757;28;20651;-68
2022/12/17 13:54:26;;;;;;;28.02;16.35;;;1.70;70.10;;;;;;5100021;28;20197;-68
2022/12/17 13:56:54;;;;;;;26.83;16.83;;;1.60;69.20;;;;;;5101967;28;20232;-69
2022/12/17 13:59:24;;;;;;;28.67;17.38;;;1.50;70.00;;;;;;5101432;28;20635;-69
2022/12/17 14:01:52;;;;;;;24.75;16.92;;;1.50;70.30;;;;;;5101797;28;20686;-68
2022/12/17 14:04:21;;;;;;;30.13;18.40;;;1.50;71.00;;;;;;5106329;28;20285;-68
2022/12/17 14:06:51;;;;;;;25.73;17.25;;;1.50;71.00;;;;;;5101928;28;20220;-68
2022/12/17 14:09:20;;;;;;;21.40;15.98;;;1.50;70.90;;;;;;5099928;28;20200;-68
2022/12/17 14:14:35;;;;;;;28.13;17.65;;;1.50;71.20;;;;;;5101750;28;20551;-68
2022/12/17 14:17:02;;;;;;;26.38;15.75;;;1.50;70.90;;;;;;5101125;28;20192;-68
2022/12/17 14:19:31;;;;;;;22.52;14.20;;;1.40;70.60;;;;;;5103653;28;20616;-68
2022/12/17 14:22:01;;;;;;;27.88;17.48;;;1.40;71.00;;;;;;5103204;28;20300;-68
2022/12/17 14:24:28;;;;;;;24.70;15.02;;;1.30;70.70;;;;;;5101414;28;20192;-68
2022/12/17 14:26:57;;;;;;;21.30;14.63;;;1.20;71.00;;;;;;5101066;28;20189;-68
2022/12/17 14:29:26;;;;;;;25.30;16.48;;;1.20;71.30;;;;;;5100902;28;20888;-68
2022/12/17 14:31:55;;;;;;;22.45;12.95;;;1.10;71.80;;;;;;5102672;28;20599;-68
2022/12/17 14:34:23;;;;;;;22.40;14.65;;;1.00;72.30;;;;;;5104060;28;20205;-68
2022/12/17 14:36:56;;;;;;;25.42;15.60;;;1.00;72.20;;;;;;5100906;28;20189;-68
2022/12/17 14:39:26;;;;;;;24.65;14.15;;;1.00;72.70;;;;;;5102369;28;20184;-67
2022/12/17 14:44:50;;;;;;;21.35;13.40;;;0.90;73.00;;;;;;5105274;28;20202;-68
2022/12/17 14:47:20;;;;;;;22.98;13.65;;;0.90;73.00;;;;;;5103014;28;20655;-69
2022/12/17 14:49:59;;;;;;;21.30;14.77;;;0.90;73.10;;;;;;5102096;28;20279;-68
2022/12/17 14:52:36;;;;;;;24.30;15.77;;;0.90;73.60;;;;;;5102668;28;20184;-69
2022/12/17 14:55:32;;;;;;;31.08;18.38;;;0.90;73.50;;;;;;5100735;28;20188;-67
2022/12/17 14:58:19;;;;;;;28.13;16.98;;;0.80;74.10;;;;;;5102633;28;20223;-68
2022/12/17 15:00:49;;;;;;;22.95;15.13;;;0.80;74.70;;;;;;5103463;28;20188;-68
2022/12/17 15:03:23;;;;;;;24.30;14.98;;;0.80;74.90;;;;;;5104204;28;20223;-68
2022/12/17 15:05:53;;;;;;;26.55;15.52;;;0.70;74.40;;;;;;5106685;28;20562;-68
2022/12/17 15:08:23;;;;;;;26.90;16.92;;;0.70;75.30;;;;;;5104374;28;20227;-68
2022/12/17 15:10:51;;;;;;;29.02;17.88;;;0.50;75.40;;;;;;5103585;28;20310;-68
2022/12/17 15:13:18;;;;;;;31.55;16.33;;;0.50;75.90;;;;;;5100227;28;20193;-68
2022/12/17 15:15:46;;;;;;;23.50;14.32;;;0.50;76.00;;;;;;5104886;28;20188;-68
2022/12/17 15:18:13;;;;;;;28.33;16.27;;;0.40;76.40;;;;;;5101987;28;20217;-68
2022/12/17 15:20:41;;;;;;;26.67;16.17;;;0.40;76.30;;;;;;5102824;28;20224;-68
2022/12/17 15:23:16;;;;;;;31.58;17.75;;;0.40;76.50;;;;;;5104406;28;20272;-68
2022/12/17 15:25:52;;;;;;;29.23;18.90;;;0.40;76.40;;;;;;5101094;28;20286;-69
2022/12/17 15:28:20;;;;;;;25.80;15.30;;;0.30;76.40;;;;;;5103362;28;20195;-70
2022/12/17 15:30:49;;;;;;;33.40;20.98;;;0.30;76.80;;;;;;5103593;28;20654;-68
2022/12/17 15:33:18;;;;;;;29.65;16.77;;;0.30;77.70;;;;;;5104371;28;20237;-68
2022/12/17 15:35:46;;;;;;;29.63;17.67;;;0.30;78.10;;;;;;5103342;28;20229;-68
2022/12/17 15:38:22;;;;;;;32.80;19.55;;;0.20;78.10;;;;;;5104708;28;20189;-68
2022/12/17 15:40:56;;;;;;;30.45;18.95;;;0.20;78.70;;;;;;5103644;28;20184;-68
2022/12/17 15:43:29;;;;;;;29.75;16.58;;;0.00;78.80;;;;;;5102291;28;20562;-68
2022/12/17 15:46:00;;;;;;;29.95;17.60;;;-0.10;79.50;;;;;;5104960;28;20731;-68
2022/12/17 15:48:28;;;;;;;25.05;16.92;;;-0.20;79.90;;;;;;5102727;28;20224;-68
2022/12/17 15:50:55;;;;;;;26.50;15.65;;;-0.30;80.60;;;;;;5102978;28;20639;-68
2022/12/17 15:53:22;;;;;;;32.45;17.55;;;-0.30;81.40;;;;;;5104138;28;20241;-68
2022/12/17 15:55:49;;;;;;;28.80;16.88;;;-0.30;81.40;;;;;;5103595;28;20253;-68
2022/12/17 15:58:18;;;;;;;26.20;16.77;;;-0.40;81.50;;;;;;5105110;28;20226;-68
2022/12/17 16:00:45;;;;;;;30.90;17.88;;;-0.40;82.00;;;;;;5103275;28;20279;-68
2022/12/17 16:03:13;;;;;;;27.73;16.85;;;-0.40;82.00;;;;;;5106261;28;20282;-67
2022/12/17 16:05:40;;;;;;;28.38;17.05;;;-0.40;82.10;;;;;;5102214;28;20221;-67
2022/12/17 16:08:10;;;;;;;31.55;17.88;;;-0.40;82.30;;;;;;5105730;28;20188;-68
2022/12/17 16:10:40;;;;;;;29.73;16.00;;;-0.40;82.70;;;;;;5092293;28;20181;-68
2022/12/17 16:13:09;;;;;;;34.60;19.95;;;-0.40;83.10;;;;;;5093305;28;20547;-68
2022/12/17 16:15:38;;;;;;;29.50;16.80;;;-0.40;83.20;;;;;;5092351;28;20216;-69
2022/12/17 16:18:05;;;;;;;33.40;17.10;;;-0.40;83.30;;;;;;5091858;28;20215;-68
2022/12/17 16:20:32;;;;;;;26.02;15.70;;;-0.50;83.60;;;;;;5092348;28;20241;-68
2022/12/17 16:22:59;;;;;;;29.13;17.25;;;-0.60;84.00;;;;;;5095083;28;20209;-68
2022/12/17 16:25:31;;;;;;;29.13;17.52;;;-0.60;84.90;;;;;;5092323;28;20195;-68
2022/12/17 16:27:58;;;;;;;27.38;15.90;;;-0.50;85.00;;;;;;5096062;28;20193;-67
2022/12/17 16:30:25;;;;;;;27.70;15.48;;;-0.50;85.00;;;;;;5092198;28;20228;-67
2022/12/17 16:32:57;;;;;;;24.85;16.50;;;-0.50;85.10;;;;;;5091842;28;20270;-68
2022/12/17 16:35:25;;;;;;;31.73;15.98;;;-0.60;86.00;;;;;;5092227;28;20591;-67
2022/12/17 16:37:52;;;;;;;26.98;15.63;;;-0.70;86.20;;;;;;5092408;28;20283;-68
2022/12/17 16:40:19;;;;;;;24.27;15.15;;;-0.80;88.00;;;;;;5092645;28;20193;-67
2022/12/17 16:42:46;;;;;;;26.85;16.25;;;-0.80;87.50;;;;;;5092422;28;20258;-67
2022/12/17 16:45:14;;;;;;;25.70;15.00;;;-0.80;87.50;;;;;;5092283;28;20639;-67
2022/12/17 16:47:41;;;;;;;27.55;18.70;;;-0.70;87.20;;;;;;5092673;28;20188;-68
2022/12/17 16:50:10;;;;;;;27.13;16.90;;;-0.70;87.60;;;;;;5092449;28;20193;-68
2022/12/17 16:52:37;;;;;;;25.75;15.50;;;-0.70;87.10;;;;;;5091887;28;20189;-68
2022/12/17 16:55:05;;;;;;;25.80;15.48;;;-0.60;87.50;;;;;;5091928;28;20193;-67
2022/12/17 16:57:32;;;;;;;24.80;15.32;;;-0.60;87.20;;;;;;5092166;28;20621;-67
2022/12/17 16:59:59;;;;;;;27.65;16.60;;;-0.60;87.10;;;;;;5092005;28;20608;-68
2022/12/17 17:02:26;;;;;;;28.55;15.85;;;-0.50;86.90;;;;;;5092137;28;20620;-68
2022/12/17 17:04:53;;;;;;;28.05;16.55;;;-0.50;86.40;;;;;;5092328;28;20217;-67
2022/12/17 17:07:22;;;;;;;22.63;14.48;;;-0.50;86.00;;;;;;5099295;28;20185;-67
2022/12/17 17:09:49;;;;;;;23.17;14.75;;;-0.40;86.50;;;;;;5095574;28;20196;-67
2022/12/17 17:12:16;;;;;;;25.25;15.52;;;-0.40;86.40;;;;;;5095856;28;20658;-68
2022/12/17 17:14:44;;;;;;;22.40;15.27;;;-0.40;86.90;;;;;;5095142;28;20195;-68
2022/12/17 17:17:11;;;;;;;24.13;15.82;;;-0.50;87.00;;;;;;5095951;28;20279;-67
2022/12/17 17:19:38;;;;;;;26.50;16.65;;;-0.50;87.10;;;;;;5095723;28;20197;-68
2022/12/17 17:22:05;;;;;;;26.70;15.93;;;-0.50;87.10;;;;;;5095699;28;20643;-68
2022/12/17 17:24:34;;;;;;;25.25;14.77;;;-0.50;87.40;;;;;;5095812;28;20324;-68
2022/12/17 17:27:10;;;;;;;24.48;15.75;;;-0.50;87.70;;;;;;5096193;28;20191;-68
2022/12/17 17:29:37;;;;;;;23.08;14.48;;;-0.40;87.50;;;;;;5095120;28;20193;-68
2022/12/17 17:32:04;;;;;;;22.88;13.88;;;-0.40;87.00;;;;;;5096489;28;20201;-68
2022/12/17 17:34:32;;;;;;;23.83;14.98;;;-0.50;87.50;;;;;;5096351;28;20196;-68
2022/12/17 17:36:59;;;;;;;25.02;15.23;;;-0.70;88.30;;;;;;5094763;28;20216;-68
2022/12/17 17:39:27;;;;;;;24.38;16.25;;;-0.60;88.60;;;;;;5094521;28;20196;-68
2022/12/17 17:41:55;;;;;;;29.50;17.35;;;-0.60;88.90;;;;;;5095320;28;20197;-67
2022/12/17 17:44:27;;;;;;;26.85;16.70;;;-0.70;88.90;;;;;;5093940;28;20270;-68
2022/12/17 17:46:54;;;;;;;26.08;17.30;;;-0.70;89.00;;;;;;5104659;28;20619;-68
2022/12/17 17:49:22;;;;;;;22.15;14.50;;;-0.70;88.70;;;;;;5103595;28;20196;-68
2022/12/17 17:51:51;;;;;;;25.70;16.73;;;-0.70;88.30;;;;;;5102116;28;20196;-68
2022/12/17 17:54:18;;;;;;;23.48;14.75;;;-0.60;88.10;;;;;;5094401;28;20193;-69
2022/12/17 17:56:48;;;;;;;25.25;14.38;;;-0.60;87.70;;;;;;5094642;28;20185;-68
2022/12/17 17:59:18;;;;;;;20.90;13.57;;;-0.60;87.80;;;;;;5093248;28;20325;-68
2022/12/17 18:01:48;;;;;;;28.73;15.52;;;-0.60;88.00;;;;;;5098206;28;20196;-68
2022/12/17 18:04:17;;;;;;;21.40;13.13;;;-0.70;88.40;;;;;;5098409;28;20232;-69
2022/12/17 18:06:46;;;;;;;20.75;12.15;;;-0.70;88.20;;;;;;5106362;28;20185;-68
2022/12/17 18:09:14;;;;;;;24.02;14.63;;;-0.80;88.40;;;;;;5094486;28;20238;-68
2022/12/17 18:11:42;;;;;;;20.00;13.43;;;-0.80;88.90;;;;;;5095084;28;20181;-68
2022/12/17 18:14:11;;;;;;;25.55;13.32;;;-0.80;88.60;;;;;;5094153;28;20198;-68
2022/12/17 18:16:42;;;;;;;22.08;13.63;;;-0.90;88.90;;;;;;5094725;28;20196;-68
2022/12/17 18:19:12;;;;;;;22.85;13.40;;;-0.90;88.90;;;;;;5094287;28;20192;-68
2022/12/17 18:21:40;;;;;;;21.30;13.57;;;-0.90;88.60;;;;;;5095309;28;20266;-68
2022/12/17 18:24:11;;;;;;;22.08;13.90;;;-1.00;89.40;;;;;;5108172;28;20353;-68
2022/12/17 18:26:41;;;;;;;20.35;13.05;;;-1.20;90.00;;;;;;5107073;28;20638;-68
2022/12/17 18:29:10;;;;;;;21.20;13.55;;;-1.20;90.20;;;;;;5094155;28;20193;-68
2022/12/17 18:31:37;;;;;;;24.67;13.45;;;-1.30;90.30;;;;;;5106962;28;20200;-68
2022/12/17 18:34:07;;;;;;;28.30;16.08;;;-1.30;90.20;;;;;;5102132;28;20646;-68
2022/12/17 18:36:38;;;;;;;22.60;12.93;;;-1.30;90.20;;;;;;5102852;28;20188;-70
2022/12/17 18:39:08;;;;;;;28.48;15.68;;;-1.40;90.40;;;;;;5095755;28;20188;-68
2022/12/17 18:44:21;;;;;;;22.73;15.02;;;-1.40;90.30;;;;;;5098945;28;20227;-68
2022/12/17 18:46:50;;;;;;;26.45;15.38;;;-1.40;90.20;;;;;;5111753;28;20291;-68
2022/12/17 18:49:20;;;;;;;23.83;14.48;;;-1.40;90.10;;;;;;5103375;28;20521;-68
2022/12/17 18:51:49;;;;;;;27.20;15.68;;;-1.30;90.00;;;;;;5093736;28;20196;-68
2022/12/17 18:54:18;;;;;;;27.33;14.93;;;-1.30;89.50;;;;;;5093480;28;20192;-68
2022/12/17 18:56:46;;;;;;;29.77;16.90;;;-1.30;89.40;;;;;;5111309;28;20196;-68
2022/12/17 18:59:17;;;;;;;30.85;18.40;;;-1.30;89.60;;;;;;5101129;28;20507;-68
2022/12/17 19:01:44;;;;;;;27.88;17.70;;;-1.20;89.40;;;;;;5093777;28;20551;-68
2022/12/17 19:04:25;;;;;;;28.67;18.38;;;-1.20;89.20;;;;;;5092992;28;20229;-69
2022/12/17 19:06:54;;;;;;;30.77;19.20;;;-1.10;89.10;;;;;;5093238;28;20196;-69
2022/12/17 19:09:29;;;;;;;32.85;18.55;;;-1.10;88.70;;;;;;5092865;28;20200;-69
2022/12/17 19:12:09;;;;;;;36.58;20.75;;;-1.10;88.70;;;;;;5093184;28;20196;-68
2022/12/17 19:14:36;;;;;;;32.92;20.33;;;-1.10;88.60;;;;;;5109709;28;20204;-68
2022/12/17 19:17:06;;;;;;;34.55;18.08;;;-1.00;88.60;;;;;;5101814;28;20190;-68
2022/12/17 19:19:34;;;;;;;28.65;16.75;;;-1.10;88.30;;;;;;5093104;28;20196;-68
2022/12/17 19:22:03;;;;;;;35.75;20.73;;;-1.10;88.30;;;;;;5093014;28;20250;-69
2022/12/17 19:24:30;;;;;;;33.95;18.00;;;-1.10;88.50;;;;;;5093220;28;20221;-68
2022/12/17 19:26:58;;;;;;;30.33;16.70;;;-1.20;88.80;;;;;;5092760;28;20193;-68
2022/12/17 19:29:25;;;;;;;34.78;18.40;;;-1.10;89.10;;;;;;5092837;28;20682;-68
2022/12/17 19:31:52;;;;;;;33.47;20.02;;;-1.20;89.00;;;;;;5092747;28;20517;-68
2022/12/17 19:34:20;;;;;;;34.63;19.10;;;-1.20;89.20;;;;;;5092888;28;20189;-69
2022/12/17 19:36:48;;;;;;;29.00;15.75;;;-1.20;89.40;;;;;;5093032;28;20196;-68
2022/12/17 19:39:20;;;;;;;36.83;19.67;;;-1.20;89.40;;;;;;5092955;28;20250;-69
2022/12/17 19:41:52;;;;;;;32.67;17.75;;;-1.20;89.80;;;;;;5092774;28;20200;-68
2022/12/17 19:44:20;;;;;;;30.40;18.48;;;-1.30;89.70;;;;;;5100490;28;20219;-68
2022/12/17 19:46:48;;;;;;;28.42;17.33;;;-1.30;89.70;;;;;;5110354;28;20250;-68
2022/12/17 19:49:17;;;;;;;30.73;17.67;;;-1.30;89.90;;;;;;5092831;28;20185;-69
2022/12/17 19:51:45;;;;;;;34.10;19.05;;;-1.30;89.60;;;;;;5095778;28;20192;-68
2022/12/17 19:54:13;;;;;;;31.45;17.80;;;-1.30;89.50;;;;;;5110587;28;20184;-69
2022/12/17 19:56:43;;;;;;;34.78;18.35;;;-1.30;89.60;;;;;;5109865;28;20231;-68
2022/12/17 19:59:13;;;;;;;31.73;17.83;;;-1.30;89.60;;;;;;5110887;28;20329;-68
2022/12/17 20:01:43;;;;;;;29.00;16.23;;;-1.30;90.10;;;;;;5110701;28;20275;-68
2022/12/17 20:04:11;;;;;;;28.77;16.10;;;-1.50;90.30;;;;;;5109009;28;20222;-69
2022/12/17 20:06:39;;;;;;;33.25;19.75;;;-1.50;90.50;;;;;;5108330;28;20180;-69
2022/12/17 20:09:07;;;;;;;35.58;18.48;;;-1.40;90.50;;;;;;5101277;28;20197;-69
2022/12/17 20:11:35;;;;;;;33.50;17.58;;;-1.40;90.40;;;;;;5106119;28;20192;-68
2022/12/17 20:14:06;;;;;;;45.25;20.02;;;-1.40;90.30;;;;;;5106323;28;20591;-68
2022/12/17 20:16:37;;;;;;;34.83;19.15;;;-1.30;90.30;;;;;;5110509;28;20193;-68
2022/12/17 20:19:11;;;;;;;33.95;18.58;;;-1.30;90.40;;;;;;5103621;28;20227;-68
2022/12/17 20:21:38;;;;;;;35.60;19.88;;;-1.30;90.50;;;;;;5110266;28;20543;-68
2022/12/17 20:24:06;;;;;;;37.03;17.77;;;-1.30;90.50;;;;;;5103286;28;20224;-68
2022/12/17 20:26:35;;;;;;;38.20;19.20;;;-1.40;90.60;;;;;;5105341;28;20196;-68
2022/12/17 20:29:05;;;;;;;39.22;19.52;;;-1.30;90.70;;;;;;5103420;28;20196;-69
2022/12/17 20:31:32;;;;;;;33.33;18.02;;;-1.30;90.50;;;;;;5091700;28;20651;-68
2022/12/17 20:34:00;;;;;;;36.97;18.17;;;-1.30;90.50;;;;;;5092044;28;20197;-68
2022/12/17 20:36:30;;;;;;;36.05;19.88;;;-1.20;90.40;;;;;;5092032;28;20193;-69
2022/12/17 20:38:57;;;;;;;33.22;17.58;;;-1.30;90.20;;;;;;5091690;28;20193;-68
2022/12/17 20:41:30;;;;;;;30.15;17.25;;;-1.40;90.30;;;;;;5093070;28;20220;-68
2022/12/17 20:43:58;;;;;;;33.60;16.42;;;-1.50;90.70;;;;;;5095659;28;20269;-68
2022/12/17 20:46:27;;;;;;;32.10;16.63;;;-1.50;90.90;;;;;;5096230;28;20197;-68
2022/12/17 20:48:54;;;;;;;33.58;16.90;;;-1.50;91.10;;;;;;5101240;28;20196;-68
2022/12/17 20:51:24;;;;;;;30.45;16.48;;;-1.60;91.10;;;;;;5114194;28;20188;-68
2022/12/17 20:53:54;;;;;;;30.85;17.67;;;-1.70;91.50;;;;;;5104388;28;20292;-68
2022/12/17 20:56:22;;;;;;;39.10;17.67;;;-1.70;91.80;;;;;;5099638;28;20189;-69
2022/12/17 20:58:53;;;;;;;36.05;18.80;;;-1.80;92.20;;;;;;5099862;28;20593;-68
2022/12/17 21:01:23;;;;;;;37.03;18.15;;;-1.80;92.50;;;;;;5099522;28;20185;-68
2022/12/17 21:03:53;;;;;;;32.70;17.02;;;-1.80;92.80;;;;;;5095501;28;20220;-68
2022/12/17 21:06:26;;;;;;;36.42;18.55;;;-1.80;92.70;;;;;;5106481;28;20189;-68
2022/12/17 21:08:54;;;;;;;32.20;16.55;;;-1.70;92.60;;;;;;5095718;28;20201;-68
2022/12/17 21:11:24;;;;;;;36.90;19.52;;;-1.70;92.50;;;;;;5095763;28;20189;-68
2022/12/17 21:13:52;;;;;;;38.63;18.40;;;-1.70;92.50;;;;;;5095542;28;20527;-68
2022/12/17 21:16:21;;;;;;;46.33;20.67;;;-1.60;92.40;;;;;;5095691;28;20559;-69
2022/12/17 21:18:52;;;;;;;36.50;19.08;;;-1.70;92.40;;;;;;5095754;28;20203;-68
2022/12/17 21:21:23;;;;;;;37.17;17.88;;;-1.80;92.80;;;;;;5095505;28;20192;-68
2022/12/17 21:23:51;;;;;;;36.05;18.42;;;-1.70;92.80;;;;;;5095115;28;20209;-69
2022/12/17 21:26:21;;;;;;;36.95;19.23;;;-1.80;92.80;;;;;;5109206;28;20184;-68
2022/12/17 21:28:52;;;;;;;41.42;18.65;;;-1.70;92.70;;;;;;5113748;28;20283;-69
2022/12/17 21:31:26;;;;;;;44.13;19.92;;;-1.70;92.70;;;;;;5100106;28;20185;-69
2022/12/17 21:33:56;;;;;;;46.47;20.48;;;-1.70;92.60;;;;;;5113405;28;20728;-68
2022/12/17 21:36:28;;;;;;;36.00;19.25;;;-1.60;92.50;;;;;;5100408;28;20546;-68
2022/12/17 21:38:59;;;;;;;39.08;19.05;;;-1.50;92.30;;;;;;5095018;28;20238;-69
2022/12/17 21:41:28;;;;;;;38.67;19.20;;;-1.50;92.00;;;;;;5097084;28;20224;-68
2022/12/17 21:43:58;;;;;;;34.88;16.33;;;-1.50;91.80;;;;;;5094969;28;20231;-68
2022/12/17 21:46:29;;;;;;;36.38;18.42;;;-1.50;91.90;;;;;;5103204;28;20220;-68
2022/12/17 21:49:04;;;;;;;31.73;18.58;;;-1.50;91.70;;;;;;5094809;28;20201;-68
2022/12/17 21:51:33;;;;;;;36.65;18.67;;;-1.50;91.50;;;;;;5094264;28;20223;-69
2022/12/17 21:54:02;;;;;;;32.78;18.13;;;-1.50;91.50;;;;;;5094074;28;20193;-68
2022/12/17 21:56:32;;;;;;;34.80;19.00;;;-1.50;91.40;;;;;;5095085;28;20274;-68
2022/12/17 21:59:03;;;;;;;38.58;18.33;;;-1.50;91.30;;;;;;5094782;28;20185;-68
2022/12/17 22:01:34;;;;;;;37.58;17.60;;;-1.50;91.30;;;;;;5094796;28;20276;-68
2022/12/17 22:04:10;;;;;;;41.40;19.15;;;-1.60;91.40;;;;;;5094483;28;20228;-68
2022/12/17 22:06:39;;;;;;;35.72;18.13;;;-1.80;91.70;;;;;;5094681;28;20184;-68
2022/12/17 22:09:15;;;;;;;30.98;16.27;;;-1.90;92.10;;;;;;5094749;28;20279;-68
2022/12/17 22:11:47;;;;;;;32.92;16.13;;;-2.10;92.40;;;;;;5094208;28;20201;-68
2022/12/17 22:14:14;;;;;;;38.50;16.92;;;-2.10;92.80;;;;;;5094263;28;20177;-69
2022/12/17 22:16:45;;;;;;;34.97;17.48;;;-2.10;92.80;;;;;;5094559;28;20196;-68
2022/12/17 22:19:18;;;;;;;34.55;17.27;;;-2.20;92.70;;;;;;5094932;28;20185;-68
2022/12/17 22:21:47;;;;;;;32.40;16.50;;;-2.10;92.70;;;;;;5094347;28;20193;-68
2022/12/17 22:24:19;;;;;;;35.47;19.15;;;-2.00;92.70;;;;;;5094433;28;20221;-68
2022/12/17 22:26:48;;;;;;;38.08;18.23;;;-1.90;92.60;;;;;;5094213;28;20693;-69
2022/12/17 22:34:51;;;;;;;42.78;20.17;;;-1.70;92.00;;;;;;5110920;28;20187;-69
2022/12/17 22:37:25;;;;;;;36.78;17.67;;;-1.70;91.70;;;;;;5095256;28;20197;-68
2022/12/17 22:39:54;;;;;;;30.42;16.98;;;-1.70;91.20;;;;;;5095593;28;20666;-68
2022/12/17 22:45:08;;;;;;;37.20;18.17;;;-1.70;91.10;;;;;;5095183;28;20216;-68
2022/12/17 22:47:38;;;;;;;34.92;17.90;;;-1.60;91.00;;;;;;5110476;28;20185;-69
2022/12/17 22:50:06;;;;;;;36.92;18.60;;;-1.60;90.90;;;;;;5093885;28;20195;-68
2022/12/17 22:52:35;;;;;;;34.88;18.35;;;-1.60;90.90;;;;;;5093975;28;20185;-68
2022/12/17 22:55:05;;;;;;;30.52;16.70;;;-1.70;90.80;;;;;;5093502;28;20217;-69
2022/12/17 22:57:33;;;;;;;33.65;16.98;;;-1.60;90.60;;;;;;5095807;28;20189;-68
2022/12/17 23:00:13;;;;;;;30.65;16.20;;;-1.70;90.60;;;;;;5093615;28;20255;-68
2022/12/17 23:02:41;;;;;;;36.95;15.75;;;-1.60;90.80;;;;;;5095660;28;20224;-69
2022/12/17 23:05:10;;;;;;;33.40;17.40;;;-1.60;90.80;;;;;;5093008;28;20305;-68
2022/12/17 23:07:39;;;;;;;39.75;19.73;;;-1.50;90.80;;;;;;5093230;28;20185;-69
2022/12/17 23:10:07;;;;;;;33.50;18.05;;;-1.50;90.60;;;;;;5093099;28;20189;-68
2022/12/17 23:12:53;;;;;;;38.08;20.55;;;-1.50;90.30;;;;;;5093350;28;20271;-68
2022/12/17 23:15:25;;;;;;;43.70;23.92;;;-1.50;90.30;;;;;;5093179;28;20552;-68
2022/12/17 23:17:53;;;;;;;45.45;20.55;;;-1.50;90.20;;;;;;5093011;28;20193;-68
2022/12/17 23:20:24;;;;;;;36.45;18.58;;;-1.50;90.10;;;;;;5093275;28;20178;-68
2022/12/17 23:22:53;;;;;;;34.05;19.20;;;-1.50;90.00;;;;;;5110856;28;20281;-68
2022/12/17 23:25:34;;;;;;;32.70;16.67;;;-1.40;89.70;;;;;;5108227;28;20685;-68
2022/12/17 23:28:02;;;;;;;34.90;18.63;;;-1.40;89.00;;;;;;5093347;28;20192;-68
2022/12/17 23:30:31;;;;;;;39.20;17.27;;;-1.50;88.90;;;;;;5092972;28;20591;-68
2022/12/17 23:32:59;;;;;;;37.08;19.02;;;-1.50;88.80;;;;;;5101669;28;20237;-69
2022/12/17 23:35:26;;;;;;;36.10;15.98;;;-1.60;88.30;;;;;;5093230;28;20208;-68
2022/12/17 23:37:55;;;;;;;30.08;14.88;;;-1.60;88.30;;;;;;5093023;28;20247;-68
2022/12/17 23:40:34;;;;;;;35.97;17.00;;;-1.70;88.30;;;;;;5093093;28;20271;-68
2022/12/17 23:43:03;;;;;;;34.42;17.90;;;-1.70;88.70;;;;;;5093728;28;20275;-68
2022/12/17 23:45:31;;;;;;;36.88;18.90;;;-1.80;89.00;;;;;;5113320;28;20242;-68
2022/12/17 23:48:01;;;;;;;63.60;27.70;;;-1.70;89.20;;;;;;5112794;28;20188;-69
2022/12/17 23:50:29;;;;;;;41.40;21.92;;;-1.70;88.90;;;;;;5093183;28;20188;-68
2022/12/17 23:52:57;;;;;;;31.52;16.13;;;-1.70;88.60;;;;;;5093456;28;20666;-68
2022/12/17 23:55:27;;;;;;;28.92;14.57;;;-1.80;88.20;;;;;;5092726;28;20197;-68
2022/12/17 23:57:59;;;;;;;23.35;12.52;;;-1.80;87.90;;;;;;5101393;28;20196;-68
